sensor_id;sensor_type;location;lat;lon;timestamp;P1;durP1;ratioP1;P2;durP2;ratioP2
12625;SDS011;6378;42.684;23.372;2023-01-10T00:01:30;27.77;;;14.27;;
12625;SDS011;6378;42.684;23.372;2023-01-10T00:03:56;32.70;;;17.13;;
12625;SDS011;6378;42.684;23.372;2023-01-10T00:06:21;32.73;;;15.50;;
12625;SDS011;6378;42.684;23.372;2023-01-10T00:08:47;26.20;;;13.93;;
12625;SDS011;6378;42.684;23.372;2023-01-10T00:11:13;31.37;;;16.47;;
12625;SDS011;6378;42.684;23.372;2023-01-10T00:13:57;29.07;;;15.00;;
12625;SDS011;6378;42.684;23.372;2023-01-10T00:16:22;30.50;;;14.13;;
12625;SDS011;6378;42.684;23.372;2023-01-10T00:18:48;24.90;;;12.17;;
12625;SDS011;6378;42.684;23.372;2023-01-10T00:21:13;27.40;;;13.30;;
12625;SDS011;6378;42.684;23.372;2023-01-10T00:23:39;32.43;;;17.27;;
12625;SDS011;6378;42.684;23.372;2023-01-10T00:26:05;27.73;;;14.57;;
12625;SDS011;6378;42.684;23.372;2023-01-10T00:28:31;26.80;;;13.23;;
12625;SDS011;6378;42.684;23.372;2023-01-10T00:30:58;21.40;;;10.97;;
12625;SDS011;6378;42.684;23.372;2023-01-10T00:33:29;23.07;;;13.60;;
12625;SDS011;6378;42.684;23.372;2023-01-10T00:35:56;22.10;;;12.33;;
12625;SDS011;6378;42.684;23.372;2023-01-10T00:38:21;23.93;;;12.63;;
12625;SDS011;6378;42.684;23.372;2023-01-10T00:40:47;25.00;;;12.53;;
12625;SDS011;6378;42.684;23.372;2023-01-10T00:43:12;27.00;;;15.20;;
12625;SDS011;6378;42.684;23.372;2023-01-10T00:45:56;31.87;;;15.60;;
12625;SDS011;6378;42.684;23.372;2023-01-10T00:48:22;25.83;;;12.10;;
12625;SDS011;6378;42.684;23.372;2023-01-10T00:50:48;21.07;;;11.30;;
12625;SDS011;6378;42.684;23.372;2023-01-10T00:53:14;18.60;;;9.73;;
12625;SDS011;6378;42.684;23.372;2023-01-10T00:55:40;29.27;;;14.57;;
12625;SDS011;6378;42.684;23.372;2023-01-10T00:58:05;26.37;;;14.53;;
12625;SDS011;6378;42.684;23.372;2023-01-10T01:00:35;30.13;;;15.93;;
12625;SDS011;6378;42.684;23.372;2023-01-10T01:03:00;26.50;;;14.57;;
12625;SDS011;6378;42.684;23.372;2023-01-10T01:05:25;32.37;;;16.30;;
12625;SDS011;6378;42.684;23.372;2023-01-10T01:07:51;28.93;;;16.20;;
12625;SDS011;6378;42.684;23.372;2023-01-10T01:10:17;21.10;;;11.73;;
12625;SDS011;6378;42.684;23.372;2023-01-10T01:12:55;18.77;;;11.37;;
12625;SDS011;6378;42.684;23.372;2023-01-10T01:15:31;22.10;;;12.50;;
12625;SDS011;6378;42.684;23.372;2023-01-10T01:17:59;23.30;;;12.23;;
12625;SDS011;6378;42.684;23.372;2023-01-10T01:20:25;27.23;;;13.63;;
12625;SDS011;6378;42.684;23.372;2023-01-10T01:22:51;20.20;;;11.47;;
12625;SDS011;6378;42.684;23.372;2023-01-10T01:25:16;20.90;;;11.70;;
12625;SDS011;6378;42.684;23.372;2023-01-10T01:27:41;27.97;;;13.63;;
12625;SDS011;6378;42.684;23.372;2023-01-10T01:30:07;31.03;;;14.97;;
12625;SDS011;6378;42.684;23.372;2023-01-10T01:32:34;29.07;;;14.30;;
12625;SDS011;6378;42.684;23.372;2023-01-10T01:34:59;30.93;;;16.97;;
12625;SDS011;6378;42.684;23.372;2023-01-10T01:37:25;27.30;;;15.30;;
12625;SDS011;6378;42.684;23.372;2023-01-10T01:39:50;27.60;;;14.50;;
12625;SDS011;6378;42.684;23.372;2023-01-10T01:42:26;27.73;;;15.10;;
12625;SDS011;6378;42.684;23.372;2023-01-10T01:53:23;29.87;;;15.43;;
12625;SDS011;6378;42.684;23.372;2023-01-10T01:55:54;23.00;;;11.17;;
12625;SDS011;6378;42.684;23.372;2023-01-10T01:58:24;26.80;;;15.10;;
12625;SDS011;6378;42.684;23.372;2023-01-10T02:00:56;28.33;;;15.83;;
12625;SDS011;6378;42.684;23.372;2023-01-10T02:03:22;29.87;;;16.20;;
12625;SDS011;6378;42.684;23.372;2023-01-10T02:05:49;23.50;;;14.07;;
12625;SDS011;6378;42.684;23.372;2023-01-10T02:08:14;28.27;;;15.47;;
12625;SDS011;6378;42.684;23.372;2023-01-10T02:10:44;28.07;;;15.57;;
12625;SDS011;6378;42.684;23.372;2023-01-10T02:13:17;25.43;;;15.13;;
12625;SDS011;6378;42.684;23.372;2023-01-10T02:15:44;23.57;;;13.53;;
12625;SDS011;6378;42.684;23.372;2023-01-10T02:18:10;29.70;;;15.27;;
12625;SDS011;6378;42.684;23.372;2023-01-10T02:26:26;27.33;;;14.80;;
12625;SDS011;6378;42.684;23.372;2023-01-10T02:34:19;24.93;;;14.20;;
12625;SDS011;6378;42.684;23.372;2023-01-10T02:42:28;24.53;;;13.00;;
12625;SDS011;6378;42.684;23.372;2023-01-10T02:45:05;27.77;;;15.70;;
12625;SDS011;6378;42.684;23.372;2023-01-10T02:47:37;23.93;;;13.47;;
12625;SDS011;6378;42.684;23.372;2023-01-10T02:53:01;23.67;;;14.10;;
12625;SDS011;6378;42.684;23.372;2023-01-10T03:00:42;18.90;;;10.53;;
12625;SDS011;6378;42.684;23.372;2023-01-10T03:03:22;24.47;;;13.00;;
12625;SDS011;6378;42.684;23.372;2023-01-10T03:06:10;18.33;;;9.90;;
12625;SDS011;6378;42.684;23.372;2023-01-10T03:11:15;28.10;;;15.23;;
12625;SDS011;6378;42.684;23.372;2023-01-10T03:14:00;24.60;;;14.73;;
12625;SDS011;6378;42.684;23.372;2023-01-10T03:16:28;24.53;;;13.57;;
12625;SDS011;6378;42.684;23.372;2023-01-10T03:18:57;22.87;;;13.53;;
12625;SDS011;6378;42.684;23.372;2023-01-10T03:21:28;23.73;;;13.13;;
12625;SDS011;6378;42.684;23.372;2023-01-10T03:23:57;24.10;;;13.53;;
12625;SDS011;6378;42.684;23.372;2023-01-10T03:29:34;23.10;;;13.97;;
12625;SDS011;6378;42.684;23.372;2023-01-10T03:32:07;26.60;;;14.03;;
12625;SDS011;6378;42.684;23.372;2023-01-10T03:34:35;22.93;;;14.60;;
12625;SDS011;6378;42.684;23.372;2023-01-10T03:40:07;24.60;;;14.73;;
12625;SDS011;6378;42.684;23.372;2023-01-10T03:42:47;26.20;;;14.70;;
12625;SDS011;6378;42.684;23.372;2023-01-10T03:45:41;23.27;;;13.73;;
12625;SDS011;6378;42.684;23.372;2023-01-10T03:48:10;26.13;;;14.60;;
12625;SDS011;6378;42.684;23.372;2023-01-10T03:50:38;23.00;;;14.73;;
12625;SDS011;6378;42.684;23.372;2023-01-10T03:53:05;25.13;;;15.40;;
12625;SDS011;6378;42.684;23.372;2023-01-10T03:55:30;23.80;;;14.53;;
12625;SDS011;6378;42.684;23.372;2023-01-10T03:57:57;25.70;;;15.43;;
12625;SDS011;6378;42.684;23.372;2023-01-10T04:00:22;27.33;;;15.13;;
12625;SDS011;6378;42.684;23.372;2023-01-10T04:02:50;18.30;;;11.87;;
12625;SDS011;6378;42.684;23.372;2023-01-10T04:05:15;16.17;;;10.77;;
12625;SDS011;6378;42.684;23.372;2023-01-10T04:07:41;20.30;;;12.10;;
12625;SDS011;6378;42.684;23.372;2023-01-10T04:10:07;18.63;;;12.67;;
12625;SDS011;6378;42.684;23.372;2023-01-10T04:12:33;17.57;;;12.07;;
12625;SDS011;6378;42.684;23.372;2023-01-10T04:14:58;22.60;;;13.97;;
12625;SDS011;6378;42.684;23.372;2023-01-10T04:17:25;14.97;;;9.53;;
12625;SDS011;6378;42.684;23.372;2023-01-10T04:19:51;22.53;;;12.30;;
12625;SDS011;6378;42.684;23.372;2023-01-10T04:22:16;22.03;;;12.97;;
12625;SDS011;6378;42.684;23.372;2023-01-10T04:24:42;24.23;;;13.83;;
12625;SDS011;6378;42.684;23.372;2023-01-10T04:27:08;22.50;;;12.70;;
12625;SDS011;6378;42.684;23.372;2023-01-10T04:29:33;22.00;;;12.27;;
12625;SDS011;6378;42.684;23.372;2023-01-10T04:31:59;24.03;;;13.53;;
12625;SDS011;6378;42.684;23.372;2023-01-10T04:34:25;23.07;;;13.37;;
12625;SDS011;6378;42.684;23.372;2023-01-10T04:36:50;20.10;;;13.03;;
12625;SDS011;6378;42.684;23.372;2023-01-10T04:39:16;21.73;;;13.03;;
12625;SDS011;6378;42.684;23.372;2023-01-10T04:41:41;23.53;;;14.50;;
12625;SDS011;6378;42.684;23.372;2023-01-10T04:44:06;22.93;;;14.70;;
12625;SDS011;6378;42.684;23.372;2023-01-10T04:46:32;24.97;;;13.30;;
12625;SDS011;6378;42.684;23.372;2023-01-10T04:48:58;21.37;;;13.57;;
12625;SDS011;6378;42.684;23.372;2023-01-10T04:51:24;22.27;;;13.87;;
12625;SDS011;6378;42.684;23.372;2023-01-10T04:53:50;25.33;;;14.43;;
12625;SDS011;6378;42.684;23.372;2023-01-10T04:56:17;25.33;;;14.40;;
12625;SDS011;6378;42.684;23.372;2023-01-10T04:58:44;23.77;;;14.17;;
12625;SDS011;6378;42.684;23.372;2023-01-10T05:01:12;25.00;;;15.53;;
12625;SDS011;6378;42.684;23.372;2023-01-10T05:03:39;25.53;;;15.67;;
12625;SDS011;6378;42.684;23.372;2023-01-10T05:06:05;25.33;;;14.10;;
12625;SDS011;6378;42.684;23.372;2023-01-10T05:08:31;27.90;;;15.57;;
12625;SDS011;6378;42.684;23.372;2023-01-10T05:10:57;27.20;;;15.70;;
12625;SDS011;6378;42.684;23.372;2023-01-10T05:13:22;25.23;;;16.47;;
12625;SDS011;6378;42.684;23.372;2023-01-10T05:15:49;26.33;;;15.67;;
12625;SDS011;6378;42.684;23.372;2023-01-10T05:18:14;27.37;;;16.67;;
12625;SDS011;6378;42.684;23.372;2023-01-10T05:20:40;26.17;;;15.53;;
12625;SDS011;6378;42.684;23.372;2023-01-10T05:23:05;27.17;;;15.57;;
12625;SDS011;6378;42.684;23.372;2023-01-10T05:25:30;28.00;;;16.80;;
12625;SDS011;6378;42.684;23.372;2023-01-10T05:27:56;33.10;;;20.60;;
12625;SDS011;6378;42.684;23.372;2023-01-10T05:30:21;34.90;;;20.37;;
12625;SDS011;6378;42.684;23.372;2023-01-10T05:32:47;42.77;;;22.50;;
12625;SDS011;6378;42.684;23.372;2023-01-10T05:35:12;32.63;;;19.13;;
12625;SDS011;6378;42.684;23.372;2023-01-10T05:37:37;26.43;;;15.53;;
12625;SDS011;6378;42.684;23.372;2023-01-10T05:40:04;27.57;;;15.70;;
12625;SDS011;6378;42.684;23.372;2023-01-10T05:42:30;25.30;;;15.93;;
12625;SDS011;6378;42.684;23.372;2023-01-10T05:44:55;26.87;;;15.83;;
12625;SDS011;6378;42.684;23.372;2023-01-10T05:47:21;29.33;;;17.87;;
12625;SDS011;6378;42.684;23.372;2023-01-10T05:49:46;27.90;;;17.37;;
12625;SDS011;6378;42.684;23.372;2023-01-10T05:52:11;31.13;;;18.50;;
12625;SDS011;6378;42.684;23.372;2023-01-10T05:54:37;28.07;;;17.43;;
12625;SDS011;6378;42.684;23.372;2023-01-10T05:57:02;27.70;;;15.87;;
12625;SDS011;6378;42.684;23.372;2023-01-10T05:59:28;25.10;;;15.77;;
12625;SDS011;6378;42.684;23.372;2023-01-10T06:01:53;23.17;;;14.47;;
12625;SDS011;6378;42.684;23.372;2023-01-10T06:04:19;26.80;;;16.17;;
12625;SDS011;6378;42.684;23.372;2023-01-10T06:06:44;27.43;;;16.30;;
12625;SDS011;6378;42.684;23.372;2023-01-10T06:09:09;29.13;;;16.90;;
12625;SDS011;6378;42.684;23.372;2023-01-10T06:11:35;26.13;;;16.37;;
12625;SDS011;6378;42.684;23.372;2023-01-10T06:14:03;25.57;;;15.80;;
12625;SDS011;6378;42.684;23.372;2023-01-10T06:16:29;30.53;;;15.73;;
12625;SDS011;6378;42.684;23.372;2023-01-10T06:18:54;26.47;;;16.93;;
12625;SDS011;6378;42.684;23.372;2023-01-10T06:21:20;26.63;;;16.97;;
12625;SDS011;6378;42.684;23.372;2023-01-10T06:23:45;26.80;;;16.63;;
12625;SDS011;6378;42.684;23.372;2023-01-10T06:26:11;29.67;;;16.13;;
12625;SDS011;6378;42.684;23.372;2023-01-10T06:28:38;30.10;;;16.07;;
12625;SDS011;6378;42.684;23.372;2023-01-10T06:31:05;26.93;;;15.90;;
12625;SDS011;6378;42.684;23.372;2023-01-10T06:33:31;23.83;;;14.50;;
12625;SDS011;6378;42.684;23.372;2023-01-10T06:35:57;23.40;;;15.50;;
12625;SDS011;6378;42.684;23.372;2023-01-10T06:38:22;23.33;;;14.67;;
12625;SDS011;6378;42.684;23.372;2023-01-10T06:40:48;24.37;;;15.00;;
12625;SDS011;6378;42.684;23.372;2023-01-10T06:43:13;29.80;;;18.30;;
12625;SDS011;6378;42.684;23.372;2023-01-10T06:45:38;28.27;;;17.07;;
12625;SDS011;6378;42.684;23.372;2023-01-10T06:48:04;31.27;;;19.03;;
12625;SDS011;6378;42.684;23.372;2023-01-10T06:50:29;34.33;;;19.87;;
12625;SDS011;6378;42.684;23.372;2023-01-10T06:52:56;33.47;;;19.37;;
12625;SDS011;6378;42.684;23.372;2023-01-10T06:55:22;31.77;;;18.70;;
12625;SDS011;6378;42.684;23.372;2023-01-10T06:57:53;31.37;;;18.03;;
12625;SDS011;6378;42.684;23.372;2023-01-10T07:00:20;30.60;;;18.83;;
12625;SDS011;6378;42.684;23.372;2023-01-10T07:02:46;27.83;;;17.57;;
12625;SDS011;6378;42.684;23.372;2023-01-10T07:05:11;29.30;;;16.63;;
12625;SDS011;6378;42.684;23.372;2023-01-10T07:07:36;29.47;;;16.97;;
12625;SDS011;6378;42.684;23.372;2023-01-10T07:10:02;29.10;;;16.87;;
12625;SDS011;6378;42.684;23.372;2023-01-10T07:12:28;26.43;;;16.57;;
12625;SDS011;6378;42.684;23.372;2023-01-10T07:14:53;29.77;;;16.17;;
12625;SDS011;6378;42.684;23.372;2023-01-10T07:17:18;25.10;;;15.73;;
12625;SDS011;6378;42.684;23.372;2023-01-10T07:19:44;28.23;;;16.77;;
12625;SDS011;6378;42.684;23.372;2023-01-10T07:22:10;29.67;;;17.10;;
12625;SDS011;6378;42.684;23.372;2023-01-10T07:24:36;28.93;;;18.40;;
12625;SDS011;6378;42.684;23.372;2023-01-10T07:27:01;27.63;;;17.17;;
12625;SDS011;6378;42.684;23.372;2023-01-10T07:29:27;31.67;;;18.30;;
12625;SDS011;6378;42.684;23.372;2023-01-10T07:31:52;31.60;;;18.03;;
12625;SDS011;6378;42.684;23.372;2023-01-10T07:34:18;28.27;;;17.53;;
12625;SDS011;6378;42.684;23.372;2023-01-10T07:36:43;28.53;;;16.57;;
12625;SDS011;6378;42.684;23.372;2023-01-10T07:39:08;26.70;;;14.80;;
12625;SDS011;6378;42.684;23.372;2023-01-10T07:41:34;24.70;;;15.07;;
12625;SDS011;6378;42.684;23.372;2023-01-10T07:43:59;27.87;;;15.47;;
12625;SDS011;6378;42.684;23.372;2023-01-10T07:46:25;27.60;;;16.30;;
12625;SDS011;6378;42.684;23.372;2023-01-10T07:48:50;29.93;;;17.87;;
12625;SDS011;6378;42.684;23.372;2023-01-10T07:51:16;32.83;;;18.53;;
12625;SDS011;6378;42.684;23.372;2023-01-10T07:53:41;32.60;;;18.97;;
12625;SDS011;6378;42.684;23.372;2023-01-10T07:56:07;34.13;;;19.70;;
12625;SDS011;6378;42.684;23.372;2023-01-10T07:58:32;39.17;;;22.10;;
12625;SDS011;6378;42.684;23.372;2023-01-10T08:00:58;36.43;;;21.27;;
12625;SDS011;6378;42.684;23.372;2023-01-10T08:03:25;34.30;;;19.50;;
12625;SDS011;6378;42.684;23.372;2023-01-10T08:06:01;32.90;;;18.23;;
12625;SDS011;6378;42.684;23.372;2023-01-10T08:08:28;34.67;;;20.20;;
12625;SDS011;6378;42.684;23.372;2023-01-10T08:10:55;33.60;;;18.67;;
12625;SDS011;6378;42.684;23.372;2023-01-10T08:13:21;30.77;;;17.57;;
12625;SDS011;6378;42.684;23.372;2023-01-10T08:15:47;31.63;;;18.83;;
12625;SDS011;6378;42.684;23.372;2023-01-10T08:18:15;32.53;;;18.57;;
12625;SDS011;6378;42.684;23.372;2023-01-10T08:20:41;34.10;;;19.63;;
12625;SDS011;6378;42.684;23.372;2023-01-10T08:23:06;35.07;;;19.37;;
12625;SDS011;6378;42.684;23.372;2023-01-10T08:25:31;33.73;;;19.10;;
12625;SDS011;6378;42.684;23.372;2023-01-10T08:27:57;34.53;;;19.80;;
12625;SDS011;6378;42.684;23.372;2023-01-10T08:30:22;36.07;;;20.77;;
12625;SDS011;6378;42.684;23.372;2023-01-10T08:32:48;33.30;;;18.97;;
12625;SDS011;6378;42.684;23.372;2023-01-10T08:35:14;39.20;;;21.30;;
12625;SDS011;6378;42.684;23.372;2023-01-10T08:37:39;32.47;;;19.27;;
12625;SDS011;6378;42.684;23.372;2023-01-10T08:40:05;32.93;;;19.30;;
12625;SDS011;6378;42.684;23.372;2023-01-10T08:42:31;37.47;;;20.30;;
12625;SDS011;6378;42.684;23.372;2023-01-10T08:44:56;39.63;;;20.90;;
12625;SDS011;6378;42.684;23.372;2023-01-10T08:47:22;39.97;;;21.63;;
12625;SDS011;6378;42.684;23.372;2023-01-10T08:49:47;40.77;;;22.47;;
12625;SDS011;6378;42.684;23.372;2023-01-10T08:52:14;39.77;;;21.43;;
12625;SDS011;6378;42.684;23.372;2023-01-10T08:54:40;42.43;;;23.03;;
12625;SDS011;6378;42.684;23.372;2023-01-10T08:57:05;40.87;;;23.80;;
12625;SDS011;6378;42.684;23.372;2023-01-10T08:59:31;43.40;;;22.50;;
12625;SDS011;6378;42.684;23.372;2023-01-10T09:01:56;38.70;;;22.40;;
12625;SDS011;6378;42.684;23.372;2023-01-10T09:04:23;39.93;;;22.83;;
12625;SDS011;6378;42.684;23.372;2023-01-10T09:06:50;43.97;;;24.43;;
12625;SDS011;6378;42.684;23.372;2023-01-10T09:09:16;43.53;;;23.13;;
12625;SDS011;6378;42.684;23.372;2023-01-10T09:11:41;41.90;;;23.23;;
12625;SDS011;6378;42.684;23.372;2023-01-10T09:14:06;46.60;;;28.67;;
12625;SDS011;6378;42.684;23.372;2023-01-10T09:16:32;43.47;;;25.17;;
12625;SDS011;6378;42.684;23.372;2023-01-10T09:18:57;51.70;;;25.87;;
12625;SDS011;6378;42.684;23.372;2023-01-10T09:21:23;42.03;;;23.40;;
12625;SDS011;6378;42.684;23.372;2023-01-10T09:23:48;42.10;;;24.67;;
12625;SDS011;6378;42.684;23.372;2023-01-10T09:26:14;38.57;;;23.13;;
12625;SDS011;6378;42.684;23.372;2023-01-10T09:28:39;41.03;;;24.00;;
12625;SDS011;6378;42.684;23.372;2023-01-10T09:31:05;41.17;;;23.43;;
12625;SDS011;6378;42.684;23.372;2023-01-10T09:33:32;39.47;;;23.17;;
12625;SDS011;6378;42.684;23.372;2023-01-10T09:35:58;40.27;;;22.93;;
12625;SDS011;6378;42.684;23.372;2023-01-10T09:38:24;40.47;;;22.93;;
12625;SDS011;6378;42.684;23.372;2023-01-10T09:49:16;48.03;;;27.80;;
12625;SDS011;6378;42.684;23.372;2023-01-10T09:51:52;48.13;;;27.97;;
12625;SDS011;6378;42.684;23.372;2023-01-10T09:54:34;52.50;;;28.70;;
12625;SDS011;6378;42.684;23.372;2023-01-10T09:57:04;49.57;;;29.23;;
12625;SDS011;6378;42.684;23.372;2023-01-10T09:59:37;49.77;;;30.30;;
12625;SDS011;6378;42.684;23.372;2023-01-10T10:07:42;47.73;;;28.77;;
12625;SDS011;6378;42.684;23.372;2023-01-10T10:10:14;52.23;;;29.67;;
12625;SDS011;6378;42.684;23.372;2023-01-10T10:12:46;50.40;;;28.87;;
12625;SDS011;6378;42.684;23.372;2023-01-10T10:26:09;52.87;;;28.27;;
12625;SDS011;6378;42.684;23.372;2023-01-10T10:28:51;48.43;;;28.90;;
12625;SDS011;6378;42.684;23.372;2023-01-10T10:36:46;73.60;;;41.90;;
12625;SDS011;6378;42.684;23.372;2023-01-10T10:39:18;73.57;;;41.37;;
12625;SDS011;6378;42.684;23.372;2023-01-10T10:41:48;78.27;;;43.70;;
12625;SDS011;6378;42.684;23.372;2023-01-10T10:46:58;86.57;;;47.30;;
12625;SDS011;6378;42.684;23.372;2023-01-10T10:52:00;82.97;;;48.27;;
12625;SDS011;6378;42.684;23.372;2023-01-10T10:54:30;83.67;;;48.20;;
12625;SDS011;6378;42.684;23.372;2023-01-10T10:56:58;98.43;;;59.47;;
12625;SDS011;6378;42.684;23.372;2023-01-10T10:59:23;86.27;;;49.97;;
12625;SDS011;6378;42.684;23.372;2023-01-10T11:01:49;71.80;;;42.17;;
12625;SDS011;6378;42.684;23.372;2023-01-10T11:04:17;74.80;;;41.67;;
12625;SDS011;6378;42.684;23.372;2023-01-10T11:06:46;69.87;;;37.13;;
12625;SDS011;6378;42.684;23.372;2023-01-10T11:09:19;60.07;;;36.83;;
12625;SDS011;6378;42.684;23.372;2023-01-10T11:11:58;62.90;;;35.13;;
12625;SDS011;6378;42.684;23.372;2023-01-10T11:14:40;62.43;;;35.80;;
12625;SDS011;6378;42.684;23.372;2023-01-10T11:22:47;55.53;;;31.13;;
12625;SDS011;6378;42.684;23.372;2023-01-10T11:25:15;55.57;;;29.53;;
12625;SDS011;6378;42.684;23.372;2023-01-10T11:27:52;49.83;;;28.67;;
12625;SDS011;6378;42.684;23.372;2023-01-10T11:30:21;49.33;;;27.00;;
12625;SDS011;6378;42.684;23.372;2023-01-10T11:32:53;46.97;;;27.17;;
12625;SDS011;6378;42.684;23.372;2023-01-10T11:35:25;51.07;;;29.00;;
12625;SDS011;6378;42.684;23.372;2023-01-10T11:40:38;55.90;;;30.00;;
12625;SDS011;6378;42.684;23.372;2023-01-10T11:43:28;61.20;;;32.80;;
12625;SDS011;6378;42.684;23.372;2023-01-10T11:46:30;59.87;;;34.03;;
12625;SDS011;6378;42.684;23.372;2023-01-10T11:52:24;59.30;;;31.50;;
12625;SDS011;6378;42.684;23.372;2023-01-10T11:55:05;53.50;;;29.37;;
12625;SDS011;6378;42.684;23.372;2023-01-10T11:58:10;53.57;;;28.77;;
12625;SDS011;6378;42.684;23.372;2023-01-10T12:01:25;54.67;;;29.20;;
12625;SDS011;6378;42.684;23.372;2023-01-10T12:03:59;48.63;;;28.37;;
12625;SDS011;6378;42.684;23.372;2023-01-10T12:06:48;50.60;;;28.20;;
12625;SDS011;6378;42.684;23.372;2023-01-10T12:12:13;50.93;;;29.23;;
12625;SDS011;6378;42.684;23.372;2023-01-10T12:26:46;44.77;;;27.77;;
12625;SDS011;6378;42.684;23.372;2023-01-10T12:32:27;47.20;;;27.10;;
12625;SDS011;6378;42.684;23.372;2023-01-10T12:35:20;44.13;;;25.17;;
12625;SDS011;6378;42.684;23.372;2023-01-10T12:38:43;41.40;;;25.23;;
12625;SDS011;6378;42.684;23.372;2023-01-10T12:50:43;36.03;;;21.37;;
12625;SDS011;6378;42.684;23.372;2023-01-10T12:53:27;37.53;;;22.27;;
12625;SDS011;6378;42.684;23.372;2023-01-10T12:55:59;36.53;;;21.57;;
12625;SDS011;6378;42.684;23.372;2023-01-10T13:01:14;36.30;;;21.43;;
12625;SDS011;6378;42.684;23.372;2023-01-10T13:03:43;41.17;;;21.43;;
12625;SDS011;6378;42.684;23.372;2023-01-10T13:06:15;35.00;;;21.73;;
12625;SDS011;6378;42.684;23.372;2023-01-10T13:08:48;36.43;;;22.77;;
12625;SDS011;6378;42.684;23.372;2023-01-10T13:11:15;35.67;;;21.80;;
12625;SDS011;6378;42.684;23.372;2023-01-10T13:13:48;36.50;;;22.37;;
12625;SDS011;6378;42.684;23.372;2023-01-10T13:19:27;33.00;;;21.27;;
12625;SDS011;6378;42.684;23.372;2023-01-10T13:21:49;36.40;;;21.63;;
12625;SDS011;6378;42.684;23.372;2023-01-10T13:24:35;34.47;;;22.53;;
12625;SDS011;6378;42.684;23.372;2023-01-10T13:27:03;32.30;;;20.47;;
12625;SDS011;6378;42.684;23.372;2023-01-10T13:29:41;37.00;;;21.30;;
12625;SDS011;6378;42.684;23.372;2023-01-10T13:35:12;37.07;;;22.20;;
12625;SDS011;6378;42.684;23.372;2023-01-10T13:37:41;37.10;;;21.97;;
12625;SDS011;6378;42.684;23.372;2023-01-10T13:40:16;39.20;;;23.00;;
12625;SDS011;6378;42.684;23.372;2023-01-10T13:48:39;38.57;;;22.53;;
12625;SDS011;6378;42.684;23.372;2023-01-10T13:51:06;39.67;;;24.95;;
12625;SDS011;6378;42.684;23.372;2023-01-10T13:53:42;35.63;;;23.20;;
12625;SDS011;6378;42.684;23.372;2023-01-10T13:56:29;42.60;;;24.30;;
12625;SDS011;6378;42.684;23.372;2023-01-10T13:59:13;37.30;;;23.70;;
12625;SDS011;6378;42.684;23.372;2023-01-10T14:02:20;36.73;;;23.13;;
12625;SDS011;6378;42.684;23.372;2023-01-10T14:04:54;33.20;;;21.37;;
12625;SDS011;6378;42.684;23.372;2023-01-10T14:10:01;31.03;;;21.20;;
12625;SDS011;6378;42.684;23.372;2023-01-10T14:12:35;26.73;;;18.63;;
12625;SDS011;6378;42.684;23.372;2023-01-10T14:15:06;24.67;;;16.23;;
12625;SDS011;6378;42.684;23.372;2023-01-10T14:17:44;23.37;;;15.27;;
12625;SDS011;6378;42.684;23.372;2023-01-10T14:20:20;19.17;;;13.53;;
12625;SDS011;6378;42.684;23.372;2023-01-10T14:22:57;23.13;;;13.87;;
12625;SDS011;6378;42.684;23.372;2023-01-10T14:25:31;18.63;;;13.03;;
12625;SDS011;6378;42.684;23.372;2023-01-10T14:27:58;24.60;;;15.60;;
12625;SDS011;6378;42.684;23.372;2023-01-10T14:30:29;23.13;;;15.50;;
12625;SDS011;6378;42.684;23.372;2023-01-10T14:32:58;15.30;;;10.23;;
12625;SDS011;6378;42.684;23.372;2023-01-10T14:35:38;13.63;;;10.07;;
12625;SDS011;6378;42.684;23.372;2023-01-10T14:38:15;16.23;;;10.50;;
12625;SDS011;6378;42.684;23.372;2023-01-10T14:40:45;11.50;;;8.67;;
12625;SDS011;6378;42.684;23.372;2023-01-10T14:43:16;13.47;;;9.93;;
12625;SDS011;6378;42.684;23.372;2023-01-10T14:45:54;13.67;;;9.73;;
12625;SDS011;6378;42.684;23.372;2023-01-10T14:48:23;11.13;;;8.47;;
12625;SDS011;6378;42.684;23.372;2023-01-10T14:53:34;9.77;;;7.70;;
12625;SDS011;6378;42.684;23.372;2023-01-10T14:55:59;8.17;;;6.40;;
12625;SDS011;6378;42.684;23.372;2023-01-10T14:58:25;11.57;;;6.70;;
12625;SDS011;6378;42.684;23.372;2023-01-10T15:00:50;8.43;;;6.33;;
12625;SDS011;6378;42.684;23.372;2023-01-10T15:03:19;16.70;;;11.20;;
12625;SDS011;6378;42.684;23.372;2023-01-10T15:05:49;30.23;;;19.53;;
12625;SDS011;6378;42.684;23.372;2023-01-10T15:08:20;7.03;;;5.03;;
12625;SDS011;6378;42.684;23.372;2023-01-10T15:10:46;15.20;;;10.00;;
12625;SDS011;6378;42.684;23.372;2023-01-10T15:13:16;25.63;;;15.33;;
12625;SDS011;6378;42.684;23.372;2023-01-10T15:15:45;32.87;;;18.83;;
12625;SDS011;6378;42.684;23.372;2023-01-10T15:18:30;15.97;;;10.50;;
12625;SDS011;6378;42.684;23.372;2023-01-10T15:21:05;32.53;;;20.13;;
12625;SDS011;6378;42.684;23.372;2023-01-10T15:23:34;16.73;;;10.83;;
12625;SDS011;6378;42.684;23.372;2023-01-10T15:26:03;16.30;;;10.83;;
12625;SDS011;6378;42.684;23.372;2023-01-10T15:28:31;40.13;;;17.90;;
12625;SDS011;6378;42.684;23.372;2023-01-10T15:30:59;7.23;;;5.73;;
12625;SDS011;6378;42.684;23.372;2023-01-10T15:33:29;21.10;;;14.17;;
12625;SDS011;6378;42.684;23.372;2023-01-10T15:36:17;15.60;;;9.17;;
12625;SDS011;6378;42.684;23.372;2023-01-10T15:38:44;9.47;;;6.60;;
12625;SDS011;6378;42.684;23.372;2023-01-10T15:41:15;9.77;;;5.40;;
12625;SDS011;6378;42.684;23.372;2023-01-10T15:43:43;6.00;;;3.60;;
12625;SDS011;6378;42.684;23.372;2023-01-10T15:46:30;5.17;;;3.83;;
12625;SDS011;6378;42.684;23.372;2023-01-10T15:49:00;6.13;;;3.70;;
12625;SDS011;6378;42.684;23.372;2023-01-10T15:51:36;6.50;;;4.33;;
12625;SDS011;6378;42.684;23.372;2023-01-10T15:54:03;6.70;;;4.50;;
12625;SDS011;6378;42.684;23.372;2023-01-10T15:56:34;5.07;;;4.13;;
12625;SDS011;6378;42.684;23.372;2023-01-10T15:59:03;6.13;;;4.20;;
12625;SDS011;6378;42.684;23.372;2023-01-10T16:01:30;5.43;;;3.60;;
12625;SDS011;6378;42.684;23.372;2023-01-10T16:03:58;5.23;;;3.87;;
12625;SDS011;6378;42.684;23.372;2023-01-10T16:06:33;3.67;;;2.83;;
12625;SDS011;6378;42.684;23.372;2023-01-10T16:09:01;4.57;;;3.27;;
12625;SDS011;6378;42.684;23.372;2023-01-10T16:14:23;4.35;;;3.58;;
12625;SDS011;6378;42.684;23.372;2023-01-10T16:16:49;3.70;;;3.23;;
12625;SDS011;6378;42.684;23.372;2023-01-10T16:19:14;4.37;;;3.10;;
12625;SDS011;6378;42.684;23.372;2023-01-10T16:21:41;4.40;;;3.07;;
12625;SDS011;6378;42.684;23.372;2023-01-10T16:24:28;4.83;;;3.30;;
12625;SDS011;6378;42.684;23.372;2023-01-10T16:26:55;4.93;;;3.87;;
12625;SDS011;6378;42.684;23.372;2023-01-10T16:29:24;6.87;;;4.30;;
12625;SDS011;6378;42.684;23.372;2023-01-10T16:31:50;7.77;;;4.20;;
12625;SDS011;6378;42.684;23.372;2023-01-10T16:34:17;4.17;;;3.47;;
12625;SDS011;6378;42.684;23.372;2023-01-10T16:36:43;5.77;;;4.20;;
12625;SDS011;6378;42.684;23.372;2023-01-10T16:39:16;5.47;;;4.40;;
12625;SDS011;6378;42.684;23.372;2023-01-10T16:41:43;6.43;;;4.70;;
12625;SDS011;6378;42.684;23.372;2023-01-10T16:44:28;6.37;;;4.53;;
12625;SDS011;6378;42.684;23.372;2023-01-10T16:46:54;6.53;;;4.47;;
12625;SDS011;6378;42.684;23.372;2023-01-10T16:49:20;7.70;;;5.40;;
12625;SDS011;6378;42.684;23.372;2023-01-10T16:51:46;7.03;;;4.97;;
12625;SDS011;6378;42.684;23.372;2023-01-10T16:54:13;7.57;;;5.60;;
12625;SDS011;6378;42.684;23.372;2023-01-10T16:56:40;10.30;;;6.30;;